sensor_id;sensor_type;location;lat;lon;timestamp;pressure;altitude;pressure_sealevel;temperature;humidity
69411;BME280;56604;48.652;9.194;2023-02-15T00:01:20;97511.69;;;1.67;96.28
69411;BME280;56604;48.652;9.194;2023-02-15T00:03:48;97513.50;;;1.67;96.04
69411;BME280;56604;48.652;9.194;2023-02-15T00:06:14;97505.06;;;1.65;96.33
69411;BME280;56604;48.652;9.194;2023-02-15T00:08:39;97500.53;;;1.58;96.44
69411;BME280;56604;48.652;9.194;2023-02-15T00:11:12;97496.31;;;1.57;96.28
69411;BME280;56604;48.652;9.194;2023-02-15T00:13:38;97493.88;;;1.56;95.93
69411;BME280;56604;48.652;9.194;2023-02-15T00:16:09;97500.38;;;1.60;96.07
69411;BME280;56604;48.652;9.194;2023-02-15T00:18:35;97498.41;;;1.62;96.44
69411;BME280;56604;48.652;9.194;2023-02-15T00:21:07;97490.63;;;1.62;96.36
69411;BME280;56604;48.652;9.194;2023-02-15T00:23:33;97486.28;;;1.63;96.33
69411;BME280;56604;48.652;9.194;2023-02-15T00:26:11;97487.09;;;1.63;96.41
69411;BME280;56604;48.652;9.194;2023-02-15T00:28:37;97491.78;;;1.60;96.30
69411;BME280;56604;48.652;9.194;2023-02-15T00:31:08;97486.63;;;1.60;96.06
69411;BME280;56604;48.652;9.194;2023-02-15T00:33:35;97483.84;;;1.61;96.26
69411;BME280;56604;48.652;9.194;2023-02-15T00:36:01;97484.50;;;1.63;96.13
69411;BME280;56604;48.652;9.194;2023-02-15T00:38:28;97485.16;;;1.57;96.12
69411;BME280;56604;48.652;9.194;2023-02-15T00:40:54;97478.66;;;1.53;96.16
69411;BME280;56604;48.652;9.194;2023-02-15T00:43:20;97483.84;;;1.53;95.79
69411;BME280;56604;48.652;9.194;2023-02-15T00:45:46;97478.66;;;1.53;96.01
69411;BME280;56604;48.652;9.194;2023-02-15T00:48:11;97468.28;;;1.61;95.96
69411;BME280;56604;48.652;9.194;2023-02-15T00:50:36;97474.63;;;1.67;96.36
69411;BME280;56604;48.652;9.194;2023-02-15T00:53:02;97466.03;;;1.66;96.47
69411;BME280;56604;48.652;9.194;2023-02-15T00:55:27;97469.91;;;1.62;96.50
69411;BME280;56604;48.652;9.194;2023-02-15T00:57:52;97470.22;;;1.67;96.39
69411;BME280;56604;48.652;9.194;2023-02-15T01:00:18;97468.78;;;1.65;96.57
69411;BME280;56604;48.652;9.194;2023-02-15T01:02:43;97475.75;;;1.64;96.33
69411;BME280;56604;48.652;9.194;2023-02-15T01:05:08;97469.59;;;1.65;95.81
69411;BME280;56604;48.652;9.194;2023-02-15T01:07:33;97475.75;;;1.64;96.11
69411;BME280;56604;48.652;9.194;2023-02-15T01:09:59;97468.63;;;1.66;96.16
69411;BME280;56604;48.652;9.194;2023-02-15T01:12:24;97470.56;;;1.64;95.83
69411;BME280;56604;48.652;9.194;2023-02-15T01:14:49;97474.78;;;1.57;96.25
69411;BME280;56604;48.652;9.194;2023-02-15T01:17:15;97470.88;;;1.53;96.50
69411;BME280;56604;48.652;9.194;2023-02-15T01:19:40;97468.47;;;1.60;96.60
69411;BME280;56604;48.652;9.194;2023-02-15T01:22:06;97460.19;;;1.64;96.29
69411;BME280;56604;48.652;9.194;2023-02-15T01:24:31;97462.13;;;1.62;95.94
69411;BME280;56604;48.652;9.194;2023-02-15T01:26:56;97467.31;;;1.62;96.21
69411;BME280;56604;48.652;9.194;2023-02-15T01:29:22;97465.88;;;1.60;96.44
69411;BME280;56604;48.652;9.194;2023-02-15T01:31:47;97468.59;;;1.42;95.50
69411;BME280;56604;48.652;9.194;2023-02-15T01:34:12;97469.22;;;1.27;95.79
69411;BME280;56604;48.652;9.194;2023-02-15T01:36:38;97467.56;;;1.10;95.14
69411;BME280;56604;48.652;9.194;2023-02-15T01:39:03;97474.84;;;0.98;95.09
69411;BME280;56604;48.652;9.194;2023-02-15T01:41:28;97472.06;;;0.92;95.14
69411;BME280;56604;48.652;9.194;2023-02-15T01:43:59;97469.75;;;0.72;95.24
69411;BME280;56604;48.652;9.194;2023-02-15T01:46:35;97478.34;;;0.81;95.34
69411;BME280;56604;48.652;9.194;2023-02-15T01:49:10;97466.66;;;0.77;95.49
69411;BME280;56604;48.652;9.194;2023-02-15T01:51:37;97466.19;;;0.73;95.67
69411;BME280;56604;48.652;9.194;2023-02-15T01:56:41;97462.28;;;0.69;96.10
69411;BME280;56604;48.652;9.194;2023-02-15T01:59:11;97466.13;;;0.65;96.45
69411;BME280;56604;48.652;9.194;2023-02-15T02:01:37;97459.63;;;0.53;96.79
69411;BME280;56604;48.652;9.194;2023-02-15T02:04:11;97458.13;;;0.42;97.29
69411;BME280;56604;48.652;9.194;2023-02-15T02:06:38;97460.25;;;0.47;97.53
69411;BME280;56604;48.652;9.194;2023-02-15T02:09:04;97449.72;;;0.48;97.32
69411;BME280;56604;48.652;9.194;2023-02-15T02:11:29;97452.94;;;0.42;97.49
69411;BME280;56604;48.652;9.194;2023-02-15T02:13:55;97457.31;;;0.41;97.13
69411;BME280;56604;48.652;9.194;2023-02-15T02:17:09;97454.41;;;0.44;96.74
69411;BME280;56604;48.652;9.194;2023-02-15T02:33:39;97432.38;;;0.32;95.99
69411;BME280;56604;48.652;9.194;2023-02-15T02:36:52;97443.34;;;0.26;95.63
69411;BME280;56604;48.652;9.194;2023-02-15T02:42:17;97438.19;;;0.26;95.47
69411;BME280;56604;48.652;9.194;2023-02-15T02:44:48;97434.94;;;0.24;95.26
69411;BME280;56604;48.652;9.194;2023-02-15T02:47:26;97438.78;;;0.20;94.85
69411;BME280;56604;48.652;9.194;2023-02-15T02:50:00;97430.88;;;0.21;95.38
69411;BME280;56604;48.652;9.194;2023-02-15T02:55:03;97426.47;;;0.14;96.12
69411;BME280;56604;48.652;9.194;2023-02-15T02:57:31;97422.63;;;0.18;96.27
69411;BME280;56604;48.652;9.194;2023-02-15T02:59:58;97418.59;;;0.24;96.68
69411;BME280;56604;48.652;9.194;2023-02-15T03:02:32;97425.28;;;0.34;96.05
69411;BME280;56604;48.652;9.194;2023-02-15T03:05:06;97419.13;;;0.35;95.58
69411;BME280;56604;48.652;9.194;2023-02-15T03:07:33;97422.22;;;0.39;95.26
69411;BME280;56604;48.652;9.194;2023-02-15T03:10:03;97421.44;;;0.47;94.89
69411;BME280;56604;48.652;9.194;2023-02-15T03:12:35;97424.53;;;0.50;94.88
69411;BME280;56604;48.652;9.194;2023-02-15T03:15:05;97418.19;;;0.44;94.72
69411;BME280;56604;48.652;9.194;2023-02-15T03:17:34;97416.50;;;0.27;95.44
69411;BME280;56604;48.652;9.194;2023-02-15T03:20:04;97421.03;;;0.25;96.09
69411;BME280;56604;48.652;9.194;2023-02-15T03:22:46;97424.50;;;0.08;96.64
69411;BME280;56604;48.652;9.194;2023-02-15T03:25:18;97431.31;;;0.09;95.90
69411;BME280;56604;48.652;9.194;2023-02-15T03:27:48;97425.16;;;0.10;96.16
69411;BME280;56604;48.652;9.194;2023-02-15T03:30:18;97420.50;;;-0.13;95.86
69411;BME280;56604;48.652;9.194;2023-02-15T03:32:46;97420.13;;;-0.18;96.48
69411;BME280;56604;48.652;9.194;2023-02-15T03:35:12;97419.13;;;0.01;96.69
69411;BME280;56604;48.652;9.194;2023-02-15T03:37:44;97418.16;;;0.36;96.80
69411;BME280;56604;48.652;9.194;2023-02-15T03:40:21;97421.59;;;0.45;95.51
69411;BME280;56604;48.652;9.194;2023-02-15T03:43:23;97415.25;;;0.05;94.94
69411;BME280;56604;48.652;9.194;2023-02-15T03:45:55;97422.03;;;-0.02;94.69
69411;BME280;56604;48.652;9.194;2023-02-15T03:48:26;97424.00;;;-0.22;94.84
69411;BME280;56604;48.652;9.194;2023-02-15T03:50:56;97420.25;;;-0.02;94.41
69411;BME280;56604;48.652;9.194;2023-02-15T03:53:42;97422.47;;;-0.07;93.25
69411;BME280;56604;48.652;9.194;2023-02-15T03:56:08;97426.03;;;-0.08;94.00
69411;BME280;56604;48.652;9.194;2023-02-15T03:58:33;97423.09;;;-0.13;93.42
69411;BME280;56604;48.652;9.194;2023-02-15T04:04:45;97419.47;;;-0.20;94.93
69411;BME280;56604;48.652;9.194;2023-02-15T04:07:10;97420.81;;;-0.16;95.32
69411;BME280;56604;48.652;9.194;2023-02-15T04:09:37;97422.59;;;-0.16;95.34
69411;BME280;56604;48.652;9.194;2023-02-15T04:12:21;97421.41;;;-0.22;95.05
69411;BME280;56604;48.652;9.194;2023-02-15T04:14:46;97413.84;;;-0.15;94.67
69411;BME280;56604;48.652;9.194;2023-02-15T04:17:30;97414.34;;;-0.12;95.31
69411;BME280;56604;48.652;9.194;2023-02-15T04:19:55;97406.47;;;-0.10;95.66
69411;BME280;56604;48.652;9.194;2023-02-15T04:22:40;97412.59;;;-0.11;95.22
69411;BME280;56604;48.652;9.194;2023-02-15T04:25:23;97412.38;;;-0.18;94.89
69411;BME280;56604;48.652;9.194;2023-02-15T04:27:53;97415.63;;;-0.16;93.79
69411;BME280;56604;48.652;9.194;2023-02-15T04:30:22;97409.97;;;-0.19;93.39
69411;BME280;56604;48.652;9.194;2023-02-15T04:32:47;97406.72;;;-0.21;93.34
69411;BME280;56604;48.652;9.194;2023-02-15T04:35:14;97412.63;;;-0.29;93.36
69411;BME280;56604;48.652;9.194;2023-02-15T04:37:40;97408.44;;;-0.30;93.66
69411;BME280;56604;48.652;9.194;2023-02-15T04:40:07;97411.38;;;-0.25;93.44
69411;BME280;56604;48.652;9.194;2023-02-15T04:42:33;97413.97;;;-0.25;93.93
69411;BME280;56604;48.652;9.194;2023-02-15T04:44:58;97410.22;;;-0.31;93.85
69411;BME280;56604;48.652;9.194;2023-02-15T04:47:24;97405.84;;;-0.30;93.82
69411;BME280;56604;48.652;9.194;2023-02-15T04:49:49;97406.47;;;-0.36;93.65
69411;BME280;56604;48.652;9.194;2023-02-15T04:52:15;97401.78;;;-0.33;93.09
69411;BME280;56604;48.652;9.194;2023-02-15T04:54:42;97399.72;;;-0.29;93.27
69411;BME280;56604;48.652;9.194;2023-02-15T04:57:07;97402.34;;;-0.21;93.45
69411;BME280;56604;48.652;9.194;2023-02-15T04:59:33;97384.75;;;-0.17;93.39
69411;BME280;56604;48.652;9.194;2023-02-15T05:01:58;97387.53;;;-0.19;93.81
69411;BME280;56604;48.652;9.194;2023-02-15T05:04:23;97384.28;;;-0.21;93.32
69411;BME280;56604;48.652;9.194;2023-02-15T05:06:49;97383.03;;;-0.35;93.00
69411;BME280;56604;48.652;9.194;2023-02-15T05:09:14;97383.84;;;-0.34;93.45
69411;BME280;56604;48.652;9.194;2023-02-15T05:11:40;97386.09;;;-0.39;92.41
69411;BME280;56604;48.652;9.194;2023-02-15T05:14:05;97382.66;;;-0.48;92.62
69411;BME280;56604;48.652;9.194;2023-02-15T05:16:31;97386.34;;;-0.51;93.08
69411;BME280;56604;48.652;9.194;2023-02-15T05:18:56;97388.75;;;-0.49;93.60
69411;BME280;56604;48.652;9.194;2023-02-15T05:21:22;97389.94;;;-0.43;93.70
69411;BME280;56604;48.652;9.194;2023-02-15T05:23:47;97394.34;;;-0.36;93.77
69411;BME280;56604;48.652;9.194;2023-02-15T05:26:19;97387.78;;;-0.30;93.11
69411;BME280;56604;48.652;9.194;2023-02-15T05:29:03;97389.25;;;-0.28;93.91
69411;BME280;56604;48.652;9.194;2023-02-15T05:31:30;97392.78;;;-0.29;94.13
69411;BME280;56604;48.652;9.194;2023-02-15T05:33:56;97395.53;;;-0.30;94.14
69411;BME280;56604;48.652;9.194;2023-02-15T05:36:21;97393.59;;;-0.28;94.47
69411;BME280;56604;48.652;9.194;2023-02-15T05:38:46;97395.53;;;-0.30;94.45
69411;BME280;56604;48.652;9.194;2023-02-15T05:41:12;97400.50;;;-0.37;94.31
69411;BME280;56604;48.652;9.194;2023-02-15T05:43:38;97394.50;;;-0.37;94.61
69411;BME280;56604;48.652;9.194;2023-02-15T05:46:04;97399.31;;;-0.42;93.88
69411;BME280;56604;48.652;9.194;2023-02-15T05:48:30;97402.03;;;-0.44;94.24
69411;BME280;56604;48.652;9.194;2023-02-15T05:51:02;97399.63;;;-0.46;93.77
69411;BME280;56604;48.652;9.194;2023-02-15T05:53:30;97398.28;;;-0.50;92.99
69411;BME280;56604;48.652;9.194;2023-02-15T05:55:55;97398.16;;;-0.48;92.58
69411;BME280;56604;48.652;9.194;2023-02-15T05:58:31;97392.13;;;-0.57;93.18
69411;BME280;56604;48.652;9.194;2023-02-15T06:00:57;97393.06;;;-0.58;93.45
69411;BME280;56604;48.652;9.194;2023-02-15T06:03:23;97397.91;;;-0.55;92.71
69411;BME280;56604;48.652;9.194;2023-02-15T06:05:51;97391.66;;;-0.52;92.66
69411;BME280;56604;48.652;9.194;2023-02-15T06:08:17;97398.97;;;-0.48;92.39
69411;BME280;56604;48.652;9.194;2023-02-15T06:10:42;97399.81;;;-0.39;92.76
69411;BME280;56604;48.652;9.194;2023-02-15T06:13:07;97389.19;;;-0.36;92.19
69411;BME280;56604;48.652;9.194;2023-02-15T06:15:33;97399.06;;;-0.31;92.76
69411;BME280;56604;48.652;9.194;2023-02-15T06:17:58;97404.25;;;-0.31;91.60
69411;BME280;56604;48.652;9.194;2023-02-15T06:20:24;97406.28;;;-0.35;92.11
69411;BME280;56604;48.652;9.194;2023-02-15T06:22:49;97407.06;;;-0.42;91.66
69411;BME280;56604;48.652;9.194;2023-02-15T06:25:15;97412.53;;;-0.46;91.68
69411;BME280;56604;48.652;9.194;2023-02-15T06:27:41;97407.06;;;-0.42;92.23
69411;BME280;56604;48.652;9.194;2023-02-15T06:30:07;97413.25;;;-0.35;91.87
69411;BME280;56604;48.652;9.194;2023-02-15T06:32:33;97419.22;;;-0.35;91.56
69411;BME280;56604;48.652;9.194;2023-02-15T06:34:58;97420.00;;;-0.34;91.79
69411;BME280;56604;48.652;9.194;2023-02-15T06:37:24;97424.59;;;-0.28;91.79
69411;BME280;56604;48.652;9.194;2023-02-15T06:39:49;97427.84;;;-0.26;91.39
69411;BME280;56604;48.652;9.194;2023-02-15T06:42:14;97428.25;;;-0.13;91.20
69411;BME280;56604;48.652;9.194;2023-02-15T06:44:40;97427.44;;;0.13;92.47
69411;BME280;56604;48.652;9.194;2023-02-15T06:47:05;97428.16;;;0.31;92.32
69411;BME280;56604;48.652;9.194;2023-02-15T06:49:31;97428.53;;;0.44;91.36
69411;BME280;56604;48.652;9.194;2023-02-15T06:51:56;97425.84;;;0.62;91.41
69411;BME280;56604;48.652;9.194;2023-02-15T06:54:21;97416.09;;;0.99;89.92
69411;BME280;56604;48.652;9.194;2023-02-15T06:56:47;97420.66;;;1.13;91.02
69411;BME280;56604;48.652;9.194;2023-02-15T06:59:12;97418.09;;;1.46;88.95
69411;BME280;56604;48.652;9.194;2023-02-15T07:01:37;97418.91;;;1.71;87.18
69411;BME280;56604;48.652;9.194;2023-02-15T07:04:03;97420.31;;;1.98;86.10
69411;BME280;56604;48.652;9.194;2023-02-15T07:06:34;97421.81;;;2.40;84.83
69411;BME280;56604;48.652;9.194;2023-02-15T07:09:00;97420.00;;;2.88;83.23
69411;BME280;56604;48.652;9.194;2023-02-15T07:11:25;97409.00;;;3.32;79.56
69411;BME280;56604;48.652;9.194;2023-02-15T07:14:10;97412.44;;;3.70;77.97
69411;BME280;56604;48.652;9.194;2023-02-15T07:16:35;97411.31;;;4.02;76.90
69411;BME280;56604;48.652;9.194;2023-02-15T07:19:00;97418.38;;;4.38;74.41
69411;BME280;56604;48.652;9.194;2023-02-15T07:21:26;97415.47;;;4.78;72.49
69411;BME280;56604;48.652;9.194;2023-02-15T07:23:52;97413.50;;;4.80;71.17
69411;BME280;56604;48.652;9.194;2023-02-15T07:26:20;97419.69;;;4.93;70.35
69411;BME280;56604;48.652;9.194;2023-02-15T07:28:45;97421.31;;;5.37;68.83
69411;BME280;56604;48.652;9.194;2023-02-15T07:31:11;97417.72;;;5.60;67.28
69411;BME280;56604;48.652;9.194;2023-02-15T07:33:36;97415.75;;;5.90;66.97
69411;BME280;56604;48.652;9.194;2023-02-15T07:36:03;97412.88;;;6.41;65.13
69411;BME280;56604;48.652;9.194;2023-02-15T07:38:34;97410.16;;;6.63;64.13
69411;BME280;56604;48.652;9.194;2023-02-15T07:41:01;97417.84;;;6.71;64.28
69411;BME280;56604;48.652;9.194;2023-02-15T07:43:28;97409.03;;;6.79;64.66
69411;BME280;56604;48.652;9.194;2023-02-15T07:45:54;97399.13;;;7.29;63.07
69411;BME280;56604;48.652;9.194;2023-02-15T07:48:19;97400.69;;;7.16;61.53
69411;BME280;56604;48.652;9.194;2023-02-15T07:50:44;97391.88;;;7.64;61.69
69411;BME280;56604;48.652;9.194;2023-02-15T07:53:10;97394.50;;;7.97;61.16
69411;BME280;56604;48.652;9.194;2023-02-15T07:55:35;97390.84;;;7.98;60.64
69411;BME280;56604;48.652;9.194;2023-02-15T07:58:00;97392.28;;;7.94;60.72
69411;BME280;56604;48.652;9.194;2023-02-15T08:00:26;97393.47;;;7.98;60.48
69411;BME280;56604;48.652;9.194;2023-02-15T08:02:53;97394.50;;;7.97;60.35
69411;BME280;56604;48.652;9.194;2023-02-15T08:05:38;97393.81;;;8.35;59.67
69411;BME280;56604;48.652;9.194;2023-02-15T08:08:03;97395.25;;;8.18;58.35
69411;BME280;56604;48.652;9.194;2023-02-15T08:10:29;97390.59;;;8.46;57.18
69411;BME280;56604;48.652;9.194;2023-02-15T08:13:12;97388.50;;;8.62;56.95
69411;BME280;56604;48.652;9.194;2023-02-15T08:15:38;97390.84;;;8.83;57.28
69411;BME280;56604;48.652;9.194;2023-02-15T08:18:03;97393.03;;;9.24;56.36
69411;BME280;56604;48.652;9.194;2023-02-15T08:20:29;97396.13;;;9.46;55.70
69411;BME280;56604;48.652;9.194;2023-02-15T08:22:54;97395.50;;;9.76;54.14
69411;BME280;56604;48.652;9.194;2023-02-15T08:25:19;97396.25;;;9.83;53.69
69411;BME280;56604;48.652;9.194;2023-02-15T08:27:44;97402.31;;;10.27;52.60
69411;BME280;56604;48.652;9.194;2023-02-15T08:30:10;97398.50;;;10.05;52.85
69411;BME280;56604;48.652;9.194;2023-02-15T08:32:36;97393.78;;;9.88;52.01
69411;BME280;56604;48.652;9.194;2023-02-15T08:35:02;97398.56;;;10.17;52.38
69411;BME280;56604;48.652;9.194;2023-02-15T08:37:27;97400.16;;;9.99;52.66
69411;BME280;56604;48.652;9.194;2023-02-15T08:39:53;97399.75;;;9.96;52.34
69411;BME280;56604;48.652;9.194;2023-02-15T08:42:18;97400.25;;;9.86;53.25
69411;BME280;56604;48.652;9.194;2023-02-15T08:44:45;97398.97;;;9.95;53.18
69411;BME280;56604;48.652;9.194;2023-02-15T08:47:11;97405.31;;;9.62;54.09
69411;BME280;56604;48.652;9.194;2023-02-15T08:49:36;97401.78;;;9.43;54.53
69411;BME280;56604;48.652;9.194;2023-02-15T08:52:02;97394.84;;;10.06;53.44
69411;BME280;56604;48.652;9.194;2023-02-15T08:54:27;97396.72;;;9.49;53.36
69411;BME280;56604;48.652;9.194;2023-02-15T08:56:53;97410.78;;;9.29;53.30
69411;BME280;56604;48.652;9.194;2023-02-15T08:59:20;97408.56;;;8.88;55.00
69411;BME280;56604;48.652;9.194;2023-02-15T09:01:48;97408.81;;;9.18;55.10
69411;BME280;56604;48.652;9.194;2023-02-15T09:04:14;97395.53;;;9.69;52.88
69411;BME280;56604;48.652;9.194;2023-02-15T09:06:42;97396.50;;;9.75;54.33
69411;BME280;56604;48.652;9.194;2023-02-15T09:09:10;97391.25;;;9.75;54.19
69411;BME280;56604;48.652;9.194;2023-02-15T09:11:38;97401.13;;;9.23;55.16
69411;BME280;56604;48.652;9.194;2023-02-15T09:14:07;97397.03;;;9.84;54.71
69411;BME280;56604;48.652;9.194;2023-02-15T09:16:36;97395.06;;;10.48;53.46
69411;BME280;56604;48.652;9.194;2023-02-15T09:19:03;97395.81;;;9.36;54.97
69411;BME280;56604;48.652;9.194;2023-02-15T09:21:33;97387.47;;;9.71;55.30
69411;BME280;56604;48.652;9.194;2023-02-15T09:24:02;97387.75;;;9.31;55.38
69411;BME280;56604;48.652;9.194;2023-02-15T09:26:29;97386.81;;;9.19;56.44
69411;BME280;56604;48.652;9.194;2023-02-15T09:28:57;97384.91;;;9.33;55.37
69411;BME280;56604;48.652;9.194;2023-02-15T09:31:28;97381.72;;;9.56;56.75
69411;BME280;56604;48.652;9.194;2023-02-15T09:33:55;97384.66;;;9.66;55.62
69411;BME280;56604;48.652;9.194;2023-02-15T09:36:38;97384.22;;;9.44;55.40
69411;BME280;56604;48.652;9.194;2023-02-15T09:39:12;97385.31;;;8.60;59.57
69411;BME280;56604;48.652;9.194;2023-02-15T09:50:00;97385.75;;;8.30;59.04
69411;BME280;56604;48.652;9.194;2023-02-15T09:52:35;97382.50;;;8.48;59.22
69411;BME280;56604;48.652;9.194;2023-02-15T10:02:54;97378.84;;;9.00;57.95
69411;BME280;56604;48.652;9.194;2023-02-15T10:08:45;97381.19;;;9.15;57.17
69411;BME280;56604;48.652;9.194;2023-02-15T10:14:25;97377.41;;;9.68;53.87
69411;BME280;56604;48.652;9.194;2023-02-15T10:17:25;97369.78;;;9.60;54.43
69411;BME280;56604;48.652;9.194;2023-02-15T10:25:26;97368.09;;;10.52;51.90
69411;BME280;56604;48.652;9.194;2023-02-15T10:27:54;97362.75;;;10.22;53.42
69411;BME280;56604;48.652;9.194;2023-02-15T10:30:25;97357.44;;;9.85;55.54
69411;BME280;56604;48.652;9.194;2023-02-15T10:32:59;97357.03;;;10.25;54.68
69411;BME280;56604;48.652;9.194;2023-02-15T10:38:24;97350.50;;;10.34;52.10
69411;BME280;56604;48.652;9.194;2023-02-15T10:46:26;97352.50;;;10.69;52.81
69411;BME280;56604;48.652;9.194;2023-02-15T10:49:02;97344.19;;;10.17;54.01
69411;BME280;56604;48.652;9.194;2023-02-15T10:51:56;97341.78;;;10.16;53.79
69411;BME280;56604;48.652;9.194;2023-02-15T10:57:23;97338.13;;;9.98;54.90
69411;BME280;56604;48.652;9.194;2023-02-15T11:02:45;97333.31;;;10.69;54.60
69411;BME280;56604;48.652;9.194;2023-02-15T11:05:25;97334.50;;;10.54;54.55
69411;BME280;56604;48.652;9.194;2023-02-15T11:07:56;97334.41;;;10.61;53.35
69411;BME280;56604;48.652;9.194;2023-02-15T11:10:54;97324.97;;;10.42;53.21
69411;BME280;56604;48.652;9.194;2023-02-15T11:13:24;97323.31;;;10.04;53.92
69411;BME280;56604;48.652;9.194;2023-02-15T11:15:57;97322.72;;;10.20;54.67
69411;BME280;56604;48.652;9.194;2023-02-15T11:18:32;97317.63;;;10.62;55.04
69411;BME280;56604;48.652;9.194;2023-02-15T11:21:13;97316.88;;;10.73;53.12
69411;BME280;56604;48.652;9.194;2023-02-15T11:23:46;97307.56;;;10.41;53.28
69411;BME280;56604;48.652;9.194;2023-02-15T11:26:21;97313.69;;;10.34;53.42
69411;BME280;56604;48.652;9.194;2023-02-15T11:28:56;97307.56;;;10.41;55.10
69411;BME280;56604;48.652;9.194;2023-02-15T11:31:25;97313.84;;;10.40;53.99
69411;BME280;56604;48.652;9.194;2023-02-15T11:33:56;97304.47;;;10.44;54.44
69411;BME280;56604;48.652;9.194;2023-02-15T11:36:37;97309.25;;;10.35;53.76
69411;BME280;56604;48.652;9.194;2023-02-15T11:39:16;97315.28;;;10.35;54.78
69411;BME280;56604;48.652;9.194;2023-02-15T11:41:53;97309.00;;;10.00;54.88
69411;BME280;56604;48.652;9.194;2023-02-15T11:44:32;97303.19;;;10.34;55.90
69411;BME280;56604;48.652;9.194;2023-02-15T11:47:00;97302.94;;;10.54;54.25
69411;BME280;56604;48.652;9.194;2023-02-15T11:49:34;97296.91;;;10.17;55.11
69411;BME280;56604;48.652;9.194;2023-02-15T11:52:02;97295.44;;;10.03;55.85
69411;BME280;56604;48.652;9.194;2023-02-15T11:54:31;97293.97;;;10.07;55.38
69411;BME280;56604;48.652;9.194;2023-02-15T11:57:06;97298.22;;;10.08;56.65
69411;BME280;56604;48.652;9.194;2023-02-15T11:59:38;97296.16;;;9.91;57.24
69411;BME280;56604;48.652;9.194;2023-02-15T12:02:17;97303.72;;;9.63;57.23
69411;BME280;56604;48.652;9.194;2023-02-15T12:04:48;97300.56;;;9.29;59.23
69411;BME280;56604;48.652;9.194;2023-02-15T12:07:22;97299.50;;;9.12;59.61
69411;BME280;56604;48.652;9.194;2023-02-15T12:12:30;97293.91;;;9.27;59.60
69411;BME280;56604;48.652;9.194;2023-02-15T12:14:57;97294.53;;;9.29;60.51
69411;BME280;56604;48.652;9.194;2023-02-15T12:17:27;97296.13;;;9.30;59.94
69411;BME280;56604;48.652;9.194;2023-02-15T12:20:00;97288.75;;;9.20;59.44
69411;BME280;56604;48.652;9.194;2023-02-15T12:22:30;97290.59;;;9.13;59.74
69411;BME280;56604;48.652;9.194;2023-02-15T12:24:59;97294.84;;;9.14;59.72
69411;BME280;56604;48.652;9.194;2023-02-15T12:27:35;97288.06;;;9.24;60.55
69411;BME280;56604;48.652;9.194;2023-02-15T12:30:31;97281.31;;;9.17;59.45
69411;BME280;56604;48.652;9.194;2023-02-15T12:33:29;97276.34;;;9.27;60.70
69411;BME280;56604;48.652;9.194;2023-02-15T12:36:11;97281.84;;;9.26;59.49
69411;BME280;56604;48.652;9.194;2023-02-15T12:38:37;97287.41;;;9.11;60.39
69411;BME280;56604;48.652;9.194;2023-02-15T12:41:10;97285.47;;;8.99;60.06
69411;BME280;56604;48.652;9.194;2023-02-15T12:43:46;97280.16;;;9.06;60.86
69411;BME280;56604;48.652;9.194;2023-02-15T12:46:21;97272.41;;;9.18;60.66
69411;BME280;56604;48.652;9.194;2023-02-15T12:48:47;97274.97;;;9.24;61.12
69411;BME280;56604;48.652;9.194;2023-02-15T12:51:14;97285.34;;;9.13;59.62
69411;BME280;56604;48.652;9.194;2023-02-15T12:53:40;97276.00;;;9.23;60.13
69411;BME280;56604;48.652;9.194;2023-02-15T12:56:09;97274.31;;;9.29;60.00
69411;BME280;56604;48.652;9.194;2023-02-15T12:58:36;97264.69;;;9.23;59.87
69411;BME280;56604;48.652;9.194;2023-02-15T13:03:29;97265.84;;;9.27;59.06
69411;BME280;56604;48.652;9.194;2023-02-15T13:05:56;97266.28;;;9.24;59.83
69411;BME280;56604;48.652;9.194;2023-02-15T13:08:31;97264.19;;;9.33;59.83
69411;BME280;56604;48.652;9.194;2023-02-15T13:11:09;97252.91;;;9.32;58.66
69411;BME280;56604;48.652;9.194;2023-02-15T13:13:51;97252.19;;;9.43;59.61
69411;BME280;56604;48.652;9.194;2023-02-15T13:16:24;97252.78;;;9.45;59.23
69411;BME280;56604;48.652;9.194;2023-02-15T13:18:54;97238.97;;;9.57;58.55
69411;BME280;56604;48.652;9.194;2023-02-15T13:21:22;97239.47;;;9.65;59.17
69411;BME280;56604;48.652;9.194;2023-02-15T13:24:05;97240.44;;;9.71;57.48
69411;BME280;56604;48.652;9.194;2023-02-15T13:26:32;97227.84;;;9.73;58.77
69411;BME280;56604;48.652;9.194;2023-02-15T13:29:10;97227.84;;;9.73;58.70
69411;BME280;56604;48.652;9.194;2023-02-15T13:31:38;97229.75;;;9.84;56.77
69411;BME280;56604;48.652;9.194;2023-02-15T13:36:57;97230.06;;;9.95;55.15
69411;BME280;56604;48.652;9.194;2023-02-15T13:42:23;97226.03;;;9.92;51.45
69411;BME280;56604;48.652;9.194;2023-02-15T13:48:00;97216.88;;;10.13;51.73
69411;BME280;56604;48.652;9.194;2023-02-15T13:56:02;97219.22;;;10.21;50.98
69411;BME280;56604;48.652;9.194;2023-02-15T14:04:12;97217.84;;;10.19;51.18
69411;BME280;56604;48.652;9.194;2023-02-15T14:06:47;97210.78;;;10.19;50.27
69411;BME280;56604;48.652;9.194;2023-02-15T14:09:40;97213.69;;;10.11;50.78
69411;BME280;56604;48.652;9.194;2023-02-15T14:20:19;97218.06;;;10.17;50.45
69411;BME280;56604;48.652;9.194;2023-02-15T14:25:56;97208.66;;;10.28;51.15
69411;BME280;56604;48.652;9.194;2023-02-15T14:28:34;97208.84;;;10.26;51.61
69411;BME280;56604;48.652;9.194;2023-02-15T14:31:02;97203.59;;;10.26;51.94
69411;BME280;56604;48.652;9.194;2023-02-15T14:33:35;97215.13;;;10.25;51.17
69411;BME280;56604;48.652;9.194;2023-02-15T14:36:05;97210.47;;;10.27;49.76
69411;BME280;56604;48.652;9.194;2023-02-15T14:41:57;97217.75;;;10.25;50.82
69411;BME280;56604;48.652;9.194;2023-02-15T14:44:41;97206.97;;;10.33;50.87
69411;BME280;56604;48.652;9.194;2023-02-15T14:47:13;97211.78;;;10.37;50.86
69411;BME280;56604;48.652;9.194;2023-02-15T14:49:43;97207.66;;;10.41;51.35
69411;BME280;56604;48.652;9.194;2023-02-15T14:52:10;97203.22;;;10.41;51.04
69411;BME280;56604;48.652;9.194;2023-02-15T14:59:38;97209.16;;;10.37;52.13
69411;BME280;56604;48.652;9.194;2023-02-15T15:04:36;97207.94;;;10.51;51.50
69411;BME280;56604;48.652;9.194;2023-02-15T15:07:24;97211.56;;;10.50;52.03
69411;BME280;56604;48.652;9.194;2023-02-15T15:12:42;97213.34;;;10.56;52.21
69411;BME280;56604;48.652;9.194;2023-02-15T15:15:13;97206.00;;;10.58;51.16
69411;BME280;56604;48.652;9.194;2023-02-15T15:20:37;97211.97;;;10.53;51.66
69411;BME280;56604;48.652;9.194;2023-02-15T15:25:49;97212.63;;;10.49;53.58